Time;durP1;ratioP1;P1;durP2;ratioP2;P2;SDS_P1;SDS_P2;PMS_P1;PMS_P2;Temp;Humidity;BMP_temperature;BMP_pressure;BME280_temperature;BME280_humidity;BME280_pressure;Samples;Min_cycle;Max_cycle;Signal;HPM_P1;HPM_P2
2024/01/11 10:04:16;;;;;;;0.20;0.20;;;-3.20;99.90;;;;;;1742587;22;20371;-93
2024/01/11 10:06:42;;;;;;;0.20;0.20;;;;;;;;;;5033083;28;20424;-89
2024/01/11 10:09:08;;;;;;;0.20;0.20;;;;;;;;;;5020717;28;20113;-91
2024/01/11 10:11:34;;;;;;;0.20;0.20;;;;;;;;;;4997256;28;20030;-91
2024/01/11 10:14:01;;;;;;;0.20;0.20;;;;;;;;;;5022441;28;20026;-90
2024/01/11 10:16:28;;;;;;;0.20;0.20;;;-2.70;99.90;;;;;;5020700;28;20021;-91
2024/01/11 10:18:54;;;;;;;0.20;0.20;;;;;;;;;;5033598;28;20031;-91
2024/01/11 10:21:20;;;;;;;0.20;0.20;;;;;;;;;;5021308;28;20024;-91
2024/01/11 10:23:46;;;;;;;0.20;0.20;;;;;;;;;;5019565;28;20411;-90
2024/01/11 10:26:12;;;;;;;0.10;0.10;;;;;;;;;;5007310;28;20025;-90
2024/01/11 10:28:38;;;;;;;0.20;0.20;;;;;;;;;;5017040;28;20064;-92
2024/01/11 10:31:07;;;;;;;0.20;0.20;;;;;;;;;;5023040;28;20029;-92
2024/01/11 10:33:34;;;;;;;0.20;0.20;;;;;;;;;;5017672;28;20061;-90
2024/01/11 10:36:00;;;;;;;0.20;0.20;;;;;;;;;;5017420;28;20076;-90
2024/01/11 10:38:27;;;;;;;0.20;0.20;;;;;;;;;;5021614;28;20030;-90
2024/01/11 10:40:55;;;;;;;0.20;0.20;;;;;;;;;;5020755;28;20021;-90
2024/01/11 10:43:22;;;;;;;0.10;0.10;;;;;;;;;;5021998;28;20028;-91
2024/01/11 10:45:56;;;;;;;0.20;0.20;;;-1.60;99.90;;;;;;5019100;28;20162;-90
2024/01/11 10:48:23;;;;;;;0.20;0.20;;;;;;;;;;5020060;28;20025;-89
2024/01/11 10:50:54;;;;;;;0.10;0.10;;;-1.60;99.90;;;;;;5019674;28;20048;-89
2024/01/11 10:53:48;;;;;;;0.10;0.10;;;-1.40;99.90;;;;;;5019203;28;20041;-91
2024/01/11 10:56:18;;;;;;;0.20;0.20;;;;;;;;;;5032213;28;20029;-89
2024/01/11 10:58:46;;;;;;;0.10;0.10;;;;;;;;;;5016999;28;20029;-90
2024/01/11 11:01:13;;;;;;;0.10;0.10;;;;;;;;;;5034263;28;20021;-90
2024/01/11 11:03:42;;;;;;;0.17;0.17;;;;;;;;;;5017835;28;20032;-90
2024/01/11 11:06:09;;;;;;;0.20;0.20;;;-1.30;99.90;;;;;;5024554;28;20022;-91
2024/01/11 11:08:36;;;;;;;0.10;0.10;;;;;;;;;;5021130;28;20025;-90
2024/01/11 11:11:05;;;;;;;0.20;0.20;;;;;;;;;;5016286;28;20021;-90
2024/01/11 11:13:31;;;;;;;0.10;0.10;;;;;;;;;;5019308;28;20083;-90
2024/01/11 11:15:57;;;;;;;0.10;0.10;;;;;;;;;;5018722;28;20416;-90
2024/01/11 11:18:24;;;;;;;0.10;0.10;;;;;;;;;;5012671;28;20032;-90
2024/01/11 11:20:51;;;;;;;0.20;0.20;;;;;;;;;;5010995;28;20038;-91
2024/01/11 11:23:17;;;;;;;0.10;0.10;;;;;;;;;;5013960;28;20080;-91
2024/01/11 11:25:45;;;;;;;0.13;0.13;;;-1.10;99.90;;;;;;5016983;28;20033;-90
2024/01/11 11:28:15;;;;;;;0.10;0.10;;;;;;;;;;5027142;28;20037;-90
2024/01/11 11:30:42;;;;;;;0.10;0.10;;;;;;;;;;5016444;28;20030;-90
2024/01/11 11:33:16;;;;;;;0.10;0.10;;;;;;;;;;5031807;28;20021;-91
2024/01/11 11:35:42;;;;;;;0.10;0.10;;;-0.30;99.90;;;;;;5015907;28;20049;-91
2024/01/11 11:38:08;;;;;;;0.10;0.10;;;;;;;;;;5024135;28;20033;-90
2024/01/11 11:40:44;;;;;;;0.10;0.10;;;;;;;;;;5016860;28;20404;-90
2024/01/11 11:43:10;;;;;;;0.10;0.10;;;;;;;;;;5026190;28;20047;-90
2024/01/11 11:45:37;;;;;;;0.20;0.20;;;-1.00;99.90;;;;;;5008344;28;20045;-90
2024/01/11 11:48:29;;;;;;;0.10;0.10;;;-1.00;99.90;;;;;;5011994;28;20036;-90
2024/01/11 11:51:08;;;;;;;0.15;0.15;;;-0.70;99.90;;;;;;5012249;28;20034;-90
2024/01/11 11:53:35;;;;;;;0.10;0.10;;;;;;;;;;5012852;28;20511;-89
2024/01/11 11:56:01;;;;;;;0.10;0.10;;;;;;;;;;5013174;28;20033;-90
2024/01/11 11:58:28;;;;;;;0.15;0.15;;;;;;;;;;5033421;28;20477;-91
2024/01/11 12:00:55;;;;;;;0.10;0.10;;;;;;;;;;5012969;28;20746;-91
2024/01/11 12:03:21;;;;;;;0.10;0.10;;;;;;;;;;5013924;28;20026;-89
2024/01/11 12:05:47;;;;;;;0.10;0.10;;;;;;;;;;5011682;28;20361;-91
2024/01/11 12:08:13;;;;;;;0.10;0.10;;;;;;;;;;5016037;28;20061;-89
2024/01/11 12:10:40;;;;;;;0.10;0.10;;;;;;;;;;5011529;28;20079;-91
2024/01/11 12:13:06;;;;;;;0.10;0.10;;;;;;;;;;5026548;28;20087;-92
2024/01/11 12:15:32;;;;;;;0.10;0.10;;;;;;;;;;5006526;28;20033;-90
2024/01/11 12:17:59;;;;;;;0.10;0.10;;;;;;;;;;5012828;28;20064;-91
2024/01/11 12:20:24;;;;;;;0.13;0.13;;;;;;;;;;5011404;28;20116;-91
2024/01/11 12:22:50;;;;;;;0.10;0.10;;;;;;;;;;5025962;28;20108;-90
2024/01/11 12:25:16;;;;;;;0.10;0.10;;;;;;;;;;4998429;28;20125;-91
2024/01/11 12:27:42;;;;;;;0.10;0.10;;;-0.10;99.90;;;;;;5005274;28;20034;-91
2024/01/11 12:30:14;;;;;;;0.10;0.10;;;;;;;;;;5010014;28;20420;-91
2024/01/11 12:32:40;;;;;;;0.10;0.10;;;;;;;;;;5014414;28;20392;-92
2024/01/11 12:35:06;;;;;;;0.10;0.10;;;;;;;;;;5012809;28;20041;-93
2024/01/11 12:37:32;;;;;;;0.10;0.10;;;;;;;;;;5013366;28;20503;-91
2024/01/11 12:39:58;;;;;;;0.10;0.10;;;;;;;;;;5016593;28;20056;-90
2024/01/11 12:42:25;;;;;;;0.10;0.10;;;;;;;;;;5015531;28;20172;-91
2024/01/11 12:44:50;;;;;;;0.10;0.10;;;;;;;;;;5029053;28;20030;-90
2024/01/11 12:47:18;;;;;;;0.10;0.10;;;;;;;;;;5012968;28;20408;-89
2024/01/11 12:49:47;;;;;;;0.00;0.00;;;;;;;;;;5011051;28;20030;-91
2024/01/11 12:52:19;;;;;;;0.10;0.10;;;;;;;;;;5012091;28;20476;-92
2024/01/11 12:54:45;;;;;;;0.10;0.10;;;;;;;;;;5014727;28;20037;-93
2024/01/11 12:57:12;;;;;;;0.10;0.10;;;;;;;;;;5012115;28;20087;-90
2024/01/11 12:59:41;;;;;;;0.10;0.10;;;;;;;;;;5011161;28;20029;-91
2024/01/11 13:02:07;;;;;;;0.13;0.13;;;;;;;;;;5011839;28;20131;-91
2024/01/11 13:04:34;;;;;;;0.10;0.10;;;;;;;;;;5019770;28;20037;-91
2024/01/11 13:07:00;;;;;;;0.10;0.10;;;;;;;;;;5016208;28;20571;-90
2024/01/11 13:09:26;;;;;;;0.00;0.00;;;;;;;;;;5015420;28;20148;-91
2024/01/11 13:11:52;;;;;;;0.10;0.10;;;;;;;;;;5016206;28;20397;-92
2024/01/11 13:14:19;;;;;;;0.08;0.08;;;;;;;;;;5015709;28;20044;-91
2024/01/11 13:16:46;;;;;;;0.10;0.10;;;;;;;;;;5015876;28;20030;-91
2024/01/11 13:19:12;;;;;;;0.10;0.10;;;;;;;;;;5015821;28;20036;-91
2024/01/11 13:21:38;;;;;;;0.05;0.05;;;;;;;;;;5017156;28;20055;-91
2024/01/11 13:24:05;;;;;;;0.10;0.10;;;;;;;;;;5000645;28;20095;-91
2024/01/11 13:26:31;;;;;;;0.10;0.10;;;;;;;;;;5019071;28;20381;-90
2024/01/11 13:28:57;;;;;;;0.05;0.05;;;;;;;;;;5019148;28;20109;-92
2024/01/11 13:31:23;;;;;;;0.10;0.10;;;;;;;;;;5013679;28;20116;-91
2024/01/11 13:33:49;;;;;;;0.10;0.10;;;;;;;;;;5014495;28;20100;-91
2024/01/11 13:36:16;;;;;;;0.10;0.10;;;;;;;;;;5014655;28;20028;-91
2024/01/11 13:38:42;;;;;;;0.10;0.10;;;;;;;;;;5013912;28;20056;-90
2024/01/11 13:41:08;;;;;;;0.10;0.10;;;;;;;;;;5012893;28;20026;-90
2024/01/11 13:43:37;;;;;;;0.10;0.10;;;;;;;;;;5012089;28;20063;-91
2024/01/11 13:46:04;;;;;;;0.10;0.10;;;;;;;;;;5013823;28;20083;-91
2024/01/11 13:48:31;;;;;;;0.10;0.10;;;;;;;;;;5030897;28;20017;-91
2024/01/11 13:50:57;;;;;;;0.10;0.10;;;;;;;;;;5015107;28;20026;-91
2024/01/11 13:53:23;;;;;;;0.10;0.10;;;;;;;;;;5014400;28;20030;-92
2024/01/11 13:55:49;;;;;;;0.10;0.10;;;;;;;;;;5031151;28;20518;-93
2024/01/11 13:58:16;;;;;;;0.10;0.10;;;;;;;;;;5008222;28;20693;-92
2024/01/11 14:00:42;;;;;;;0.10;0.10;;;;;;;;;;5007196;28;20064;-92
2024/01/11 14:03:08;;;;;;;0.10;0.10;;;;;;;;;;5007579;28;20065;-92
2024/01/11 14:05:35;;;;;;;0.10;0.10;;;;;;;;;;5008762;28;20133;-92
2024/01/11 14:08:04;;;;;;;0.10;0.10;;;;;;;;;;5024608;28;20040;-92
2024/01/11 14:10:30;;;;;;;0.20;0.20;;;;;;;;;;5026295;28;20029;-92
2024/01/11 14:12:56;;;;;;;0.10;0.10;;;;;;;;;;5026894;28;20029;-92
2024/01/11 14:15:22;;;;;;;0.10;0.10;;;;;;;;;;5014592;28;20034;-92
2024/01/11 14:17:47;;;;;;;0.10;0.10;;;;;;;;;;5029094;28;20048;-91
2024/01/11 14:20:14;;;;;;;0.10;0.10;;;;;;;;;;5008383;28;20037;-93
2024/01/11 14:22:49;;;;;;;0.10;0.10;;;0.00;99.90;;;;;;5009054;28;20137;-92
2024/01/11 14:25:24;;;;;;;0.10;0.10;;;-0.10;99.90;;;;;;5005893;28;20029;-92
2024/01/11 14:27:50;;;;;;;0.10;0.10;;;;;;;;;;5002960;28;20493;-92
2024/01/11 14:30:16;;;;;;;0.10;0.10;;;;;;;;;;5009159;28;20026;-92
2024/01/11 14:32:43;;;;;;;0.10;0.10;;;;;;;;;;5028375;28;20083;-92
2024/01/11 14:35:09;;;;;;;0.10;0.10;;;0.10;99.90;;;;;;5024880;28;20036;-92
2024/01/11 14:37:36;;;;;;;0.10;0.10;;;;;;;;;;5006586;28;20033;-92
2024/01/11 14:40:02;;;;;;;0.10;0.10;;;;;;;;;;5006146;28;20033;-93
2024/01/11 14:42:28;;;;;;;0.10;0.10;;;;;;;;;;5003134;28;20027;-93
2024/01/11 14:44:54;;;;;;;0.10;0.10;;;;;;;;;;5022404;28;20099;-92
2024/01/11 14:47:20;;;;;;;0.10;0.10;;;;;;;;;;5010931;28;20025;-92
2024/01/11 14:49:47;;;;;;;0.08;0.08;;;;;;;;;;5010677;28;20112;-90
2024/01/11 14:52:13;;;;;;;0.10;0.10;;;;;;;;;;5015388;28;20022;-92
2024/01/11 14:54:39;;;;;;;0.10;0.10;;;;;;;;;;5017591;28;20037;-93
2024/01/11 14:57:05;;;;;;;0.10;0.10;;;;;;;;;;5016193;28;20392;-92
2024/01/11 14:59:32;;;;;;;0.10;0.10;;;;;;;;;;5003488;28;20404;-93
2024/01/11 15:01:59;;;;;;;0.10;0.10;;;;;;;;;;5010970;28;20148;-91
2024/01/11 15:04:25;;;;;;;0.10;0.10;;;;;;;;;;5009184;28;20029;-92
2024/01/11 15:06:51;;;;;;;0.00;0.00;;;;;;;;;;5010520;28;20037;-92
2024/01/11 15:09:17;;;;;;;0.10;0.10;;;;;;;;;;5011654;28;20029;-91
2024/01/11 15:11:43;;;;;;;0.10;0.10;;;;;;;;;;5007631;28;20060;-93
2024/01/11 15:14:09;;;;;;;0.10;0.10;;;;;;;;;;5012773;28;20068;-93
2024/01/11 15:16:36;;;;;;;0.10;0.10;;;0.30;99.90;;;;;;5010611;28;20623;-92
2024/01/11 15:19:02;;;;;;;0.10;0.10;;;;;;;;;;5009297;28;20038;-92
2024/01/11 15:21:28;;;;;;;0.10;0.10;;;;;;;;;;5009320;28;20029;-90
2024/01/11 15:23:54;;;;;;;0.10;0.10;;;0.30;99.90;;;;;;5012935;28;20066;-92
2024/01/11 15:26:20;;;;;;;0.10;0.10;;;;;;;;;;5031289;28;20029;-92
2024/01/11 15:28:49;;;;;;;0.00;0.00;;;;;;;;;;5017646;28;20022;-93
2024/01/11 15:31:15;;;;;;;0.10;0.10;;;;;;;;;;5019530;28;20037;-91
2024/01/11 15:33:41;;;;;;;0.10;0.10;;;;;;;;;;5016731;28;20021;-92
2024/01/11 15:36:07;;;;;;;0.10;0.10;;;;;;;;;;5033332;28;20547;-92
2024/01/11 15:38:33;;;;;;;0.10;0.10;;;;;;;;;;5035668;28;20614;-92
2024/01/11 15:41:03;;;;;;;0.10;0.10;;;;;;;;;;5016523;28;20036;-92
2024/01/11 15:43:28;;;;;;;0.10;0.10;;;;;;;;;;5013308;28;20022;-92
2024/01/11 15:45:54;;;;;;;0.10;0.10;;;;;;;;;;5016100;28;20030;-93
2024/01/11 15:48:20;;;;;;;0.00;0.00;;;;;;;;;;5013198;28;20480;-93
2024/01/11 15:50:46;;;;;;;0.10;0.10;;;;;;;;;;5011397;28;20028;-92
2024/01/11 15:53:12;;;;;;;0.10;0.10;;;;;;;;;;5017225;28;20494;-92
2024/01/11 15:55:38;;;;;;;0.10;0.10;;;;;;;;;;4992298;28;20037;-91
2024/01/11 15:58:04;;;;;;;0.10;0.10;;;;;;;;;;5025431;28;20041;-92
2024/01/11 16:00:31;;;;;;;0.10;0.10;;;;;;;;;;5012700;28;20721;-92
2024/01/11 16:02:57;;;;;;;0.00;0.00;;;;;;;;;;5016638;28;20033;-92
2024/01/11 16:05:25;;;;;;;0.10;0.10;;;0.30;99.90;;;;;;5015112;28;20056;-91
2024/01/11 16:07:51;;;;;;;0.00;0.00;;;;;;;;;;5014555;28;20404;-91
2024/01/11 16:10:17;;;;;;;0.00;0.00;;;;;;;;;;5015947;28;20024;-92
2024/01/11 16:12:43;;;;;;;0.10;0.10;;;;;;;;;;5020067;28;20403;-92
2024/01/11 16:15:10;;;;;;;0.10;0.10;;;;;;;;;;5014511;28;20036;-92
2024/01/11 19:03:17;;;;;;;0.10;0.10;;;;;;;;;;5013492;28;20049;-93
2024/01/11 19:05:43;;;;;;;0.00;0.00;;;;;;;;;;5014087;28;20065;-91
2024/01/11 19:08:09;;;;;;;0.10;0.10;;;;;;;;;;5000102;28;20508;-93
2024/01/11 19:10:35;;;;;;;0.00;0.00;;;;;;;;;;4994571;28;20036;-90
2024/01/11 19:13:01;;;;;;;0.10;0.10;;;;;;;;;;4998025;28;20030;-93
2024/01/11 19:15:27;;;;;;;0.10;0.10;;;;;;;;;;5010944;28;20499;-92
2024/01/11 19:17:53;;;;;;;0.08;0.08;;;;;;;;;;4992102;28;20034;-92
2024/01/11 19:20:19;;;;;;;0.10;0.10;;;;;;;;;;4995012;28;20093;-92
2024/01/11 19:22:45;;;;;;;0.00;0.00;;;;;;;;;;4989887;28;20120;-91
2024/01/11 19:25:13;;;;;;;0.10;0.10;;;;;;;;;;4991502;28;20034;-92
2024/01/11 19:27:39;;;;;;;0.03;0.03;;;;;;;;;;4990503;28;20030;-91
2024/01/11 19:30:07;;;;;;;0.10;0.10;;;;;;;;;;4995851;28;20018;-92
2024/01/11 19:32:33;;;;;;;0.00;0.00;;;;;;;;;;4991228;28;20053;-92
2024/01/11 19:34:59;;;;;;;0.08;0.08;;;;;;;;;;4986594;28;20027;-91
2024/01/11 19:37:25;;;;;;;0.10;0.10;;;;;;;;;;5006083;28;20148;-92
2024/01/11 19:39:51;;;;;;;0.10;0.10;;;;;;;;;;4991205;28;20511;-92
2024/01/11 19:42:17;;;;;;;0.10;0.10;;;;;;;;;;4995140;28;20031;-92
2024/01/11 19:44:43;;;;;;;0.10;0.10;;;;;;;;;;4994892;28;20041;-91
2024/01/11 19:47:09;;;;;;;0.00;0.00;;;;;;;;;;5000259;28;20403;-92
2024/01/11 19:49:35;;;;;;;0.10;0.10;;;;;;;;;;5003472;28;20477;-91
2024/01/11 19:52:01;;;;;;;0.10;0.10;;;;;;;;;;5011242;28;20112;-92
2024/01/11 19:54:27;;;;;;;0.10;0.10;;;;;;;;;;5000047;28;20029;-92
2024/01/11 19:56:53;;;;;;;0.10;0.10;;;;;;;;;;4991298;28;20068;-92
2024/01/11 19:59:19;;;;;;;0.00;0.00;;;;;;;;;;4993874;28;20041;-92
2024/01/11 20:01:45;;;;;;;0.10;0.10;;;;;;;;;;4994810;28;20061;-91
2024/01/11 20:04:11;;;;;;;0.10;0.10;;;;;;;;;;4996051;28;20092;-92
2024/01/11 20:06:37;;;;;;;0.10;0.10;;;;;;;;;;4996290;28;20030;-92
2024/01/11 20:09:04;;;;;;;0.10;0.10;;;;;;;;;;5004794;28;20745;-90
2024/01/11 20:11:29;;;;;;;0.00;0.00;;;;;;;;;;4995682;28;20022;-91
2024/01/11 20:13:55;;;;;;;0.03;0.03;;;;;;;;;;4997122;28;20037;-92
2024/01/11 20:16:21;;;;;;;0.00;0.00;;;;;;;;;;4996956;28;20041;-92
2024/01/11 20:18:47;;;;;;;0.10;0.10;;;;;;;;;;4996793;28;20467;-93
2024/01/11 20:21:13;;;;;;;0.00;0.00;;;;;;;;;;4997274;28;20030;-92
2024/01/11 20:23:42;;;;;;;0.10;0.10;;;1.40;99.90;;;;;;4997370;28;20033;-91
2024/01/11 20:26:13;;;;;;;0.10;0.10;;;1.40;99.90;;;;;;4999189;28;20050;-92
2024/01/11 20:28:39;;;;;;;0.00;0.00;;;;;;;;;;4996755;28;20030;-91
2024/01/11 20:31:05;;;;;;;0.10;0.10;;;;;;;;;;5009013;28;20040;-92
2024/01/11 20:33:31;;;;;;;0.00;0.00;;;;;;;;;;4990694;28;20438;-93
2024/01/11 20:35:57;;;;;;;0.10;0.10;;;;;;;;;;4993402;28;20030;-93
2024/01/11 20:38:23;;;;;;;0.00;0.00;;;;;;;;;;5004196;28;20507;-91
2024/01/11 20:40:49;;;;;;;0.10;0.10;;;;;;;;;;4994091;28;20031;-90
2024/01/11 20:43:15;;;;;;;0.10;0.10;;;;;;;;;;4993498;28;20056;-92
2024/01/11 20:45:41;;;;;;;0.00;0.00;;;;;;;;;;5005250;28;20042;-91
2024/01/11 20:48:07;;;;;;;0.10;0.10;;;;;;;;;;4987176;28;20053;-91
2024/01/11 20:50:33;;;;;;;0.10;0.10;;;;;;;;;;4990660;28;20026;-92
2024/01/11 20:53:01;;;;;;;0.10;0.10;;;;;;;;;;4994787;28;20033;-93
2024/01/11 20:55:27;;;;;;;0.10;0.10;;;;;;;;;;5005694;28;20033;-91
2024/01/11 20:57:53;;;;;;;0.10;0.10;;;;;;;;;;4985747;28;20037;-91
2024/01/11 21:00:19;;;;;;;0.00;0.00;;;;;;;;;;4992614;28;20037;-92
2024/01/11 21:02:45;;;;;;;0.10;0.10;;;;;;;;;;4991783;28;20042;-91
2024/01/11 21:05:11;;;;;;;0.00;0.00;;;;;;;;;;5006814;28;20034;-90
2024/01/11 21:07:37;;;;;;;0.00;0.00;;;;;;;;;;5007444;28;20033;-91
2024/01/11 21:10:03;;;;;;;0.10;0.10;;;1.50;99.90;;;;;;4988274;28;20026;-90
2024/01/11 21:12:29;;;;;;;0.10;0.10;;;;;;;;;;4987765;28;20065;-90
2024/01/11 21:14:55;;;;;;;0.10;0.10;;;;;;;;;;4985410;28;20042;-89
2024/01/11 21:17:21;;;;;;;0.10;0.10;;;;;;;;;;4980797;28;20041;-92
2024/01/11 21:19:46;;;;;;;0.10;0.10;;;;;;;;;;4982849;28;20046;-93
2024/01/11 21:22:12;;;;;;;0.08;0.08;;;;;;;;;;4979064;28;20038;-91
2024/01/11 21:24:38;;;;;;;0.10;0.10;;;;;;;;;;4985911;28;20099;-92
2024/01/11 21:27:04;;;;;;;0.10;0.10;;;;;;;;;;4986519;28;20034;-91
2024/01/11 21:29:30;;;;;;;0.10;0.10;;;;;;;;;;4989937;28;20473;-92
2024/01/11 21:31:57;;;;;;;0.10;0.10;;;;;;;;;;4978102;28;20029;-92
2024/01/11 21:34:23;;;;;;;0.10;0.10;;;;;;;;;;4992394;28;20492;-94
2024/01/11 21:36:55;;;;;;;0.03;0.03;;;;;;;;;;4996496;28;20025;-91
2024/01/11 21:39:21;;;;;;;0.10;0.10;;;;;;;;;;4987220;28;20034;-92
2024/01/11 21:41:48;;;;;;;0.10;0.10;;;;;;;;;;5013997;28;20575;-92
2024/01/11 21:44:14;;;;;;;0.10;0.10;;;;;;;;;;4993621;28;20432;-92
2024/01/11 21:46:41;;;;;;;0.00;0.00;;;;;;;;;;4996920;28;20025;-92
2024/01/11 21:49:07;;;;;;;0.00;0.00;;;;;;;;;;4999179;28;22453;-92
2024/01/11 21:51:32;;;;;;;0.10;0.10;;;;;;;;;;4996682;28;20020;-92
2024/01/11 21:53:59;;;;;;;0.10;0.10;;;;;;;;;;5007946;28;20030;-92
2024/01/11 21:56:25;;;;;;;0.10;0.10;;;;;;;;;;4997583;28;20033;-92
2024/01/11 21:58:51;;;;;;;0.05;0.05;;;;;;;;;;4993479;28;20041;-91
2024/01/11 22:01:17;;;;;;;0.00;0.00;;;;;;;;;;5011668;28;20025;-92
2024/01/11 22:03:44;;;;;;;0.00;0.00;;;;;;;;;;4990810;28;20149;-93
2024/01/11 22:06:10;;;;;;;0.10;0.10;;;;;;;;;;5010869;28;20496;-92
2024/01/11 22:08:38;;;;;;;0.10;0.10;;;;;;;;;;4994771;28;20111;-92
2024/01/11 22:11:04;;;;;;;0.10;0.10;;;;;;;;;;5016781;28;20022;-92
2024/01/11 22:13:30;;;;;;;0.08;0.08;;;;;;;;;;4995216;28;20018;-93
2024/01/11 22:15:56;;;;;;;0.10;0.10;;;;;;;;;;4995359;28;20103;-92
2024/01/11 22:18:22;;;;;;;0.10;0.10;;;;;;;;;;5000317;28;20072;-91
2024/01/11 22:20:48;;;;;;;0.10;0.10;;;;;;;;;;4993733;28;20029;-93
2024/01/11 22:23:14;;;;;;;0.10;0.10;;;;;;;;;;4994366;28;20072;-91
2024/01/11 22:25:40;;;;;;;0.10;0.10;;;;;;;;;;4993355;28;20046;-92
2024/01/11 22:28:06;;;;;;;0.10;0.10;;;;;;;;;;4993009;28;20088;-93
2024/01/11 22:30:32;;;;;;;0.10;0.10;;;;;;;;;;4992693;28;20390;-92
2024/01/11 22:32:58;;;;;;;0.00;0.00;;;;;;;;;;4991966;28;20034;-92
2024/01/11 22:35:24;;;;;;;0.00;0.00;;;;;;;;;;4994084;28;20026;-92
2024/01/11 22:37:51;;;;;;;0.10;0.10;;;;;;;;;;5010694;28;20512;-92
2024/01/11 22:40:17;;;;;;;0.10;0.10;;;;;;;;;;4994991;28;20034;-92
2024/01/11 22:42:43;;;;;;;0.10;0.10;;;;;;;;;;4994249;28;20026;-92
2024/01/11 22:45:09;;;;;;;0.03;0.03;;;;;;;;;;4991104;28;20030;-92
2024/01/11 22:47:35;;;;;;;0.00;0.00;;;;;;;;;;4990757;28;20076;-93
2024/01/11 22:50:01;;;;;;;0.10;0.10;;;;;;;;;;4992927;28;20404;-92
2024/01/11 22:52:27;;;;;;;0.00;0.00;;;;;;;;;;4991358;28;20041;-93
2024/01/11 22:54:53;;;;;;;0.10;0.10;;;;;;;;;;4986383;28;20076;-93
2024/01/11 22:57:19;;;;;;;0.05;0.05;;;;;;;;;;4992196;28;20119;-93
2024/01/11 22:59:45;;;;;;;0.10;0.10;;;;;;;;;;4991083;28;20041;-91
2024/01/11 23:02:11;;;;;;;0.00;0.00;;;;;;;;;;4989452;28;20034;-92
2024/01/11 23:04:36;;;;;;;0.10;0.10;;;;;;;;;;4991054;28;20056;-92
2024/01/11 23:07:03;;;;;;;0.10;0.10;;;;;;;;;;4989432;28;20374;-93
2024/01/11 23:09:28;;;;;;;0.10;0.10;;;;;;;;;;4989904;28;20041;-92
2024/01/11 23:11:54;;;;;;;0.10;0.10;;;;;;;;;;4992501;28;20030;-92
2024/01/11 23:14:23;;;;;;;0.10;0.10;;;;;;;;;;4997020;28;20029;-93
2024/01/11 23:16:49;;;;;;;0.05;0.05;;;;;;;;;;4991421;28;20030;-90
2024/01/11 23:19:15;;;;;;;0.10;0.10;;;;;;;;;;4993002;28;20041;-92
2024/01/11 23:21:42;;;;;;;0.10;0.10;;;;;;;;;;4995107;28;20033;-92
2024/01/11 23:24:08;;;;;;;0.10;0.10;;;;;;;;;;4990111;28;20507;-92
2024/01/11 23:26:34;;;;;;;0.10;0.10;;;;;;;;;;4992307;28;20030;-92
2024/01/11 23:29:00;;;;;;;0.03;0.03;;;;;;;;;;4993783;28;20109;-92
2024/01/11 23:31:25;;;;;;;0.00;0.00;;;;;;;;;;4994245;28;20110;-92
2024/01/11 23:33:52;;;;;;;0.10;0.10;;;;;;;;;;4995395;28;20036;-91
2024/01/11 23:36:18;;;;;;;0.03;0.03;;;;;;;;;;4996094;28;20500;-91
2024/01/11 23:38:44;;;;;;;0.10;0.10;;;;;;;;;;4995214;28;20069;-91
2024/01/11 23:41:10;;;;;;;0.10;0.10;;;;;;;;;;4990134;28;20057;-92
2024/01/11 23:43:36;;;;;;;0.10;0.10;;;;;;;;;;4993687;28;20034;-92
2024/01/11 23:46:02;;;;;;;0.10;0.10;;;;;;;;;;4993873;28;20029;-92
2024/01/11 23:48:32;;;;;;;0.10;0.10;;;;;;;;;;4993154;28;20516;-92
2024/01/11 23:50:58;;;;;;;0.10;0.10;;;;;;;;;;4992291;28;20032;-92
2024/01/11 23:53:24;;;;;;;0.10;0.10;;;;;;;;;;5012136;28;20463;-92
2024/01/11 23:55:50;;;;;;;0.00;0.00;;;;;;;;;;5010168;28;20076;-91
2024/01/11 23:58:16;;;;;;;0.10;0.10;;;;;;;;;;4992393;28;20030;-92
